sensor_id;sensor_type;location;lat;lon;timestamp;pressure;altitude;pressure_sealevel;temperature;humidity
69842;BME280;57138;51.326;-0.068;2023-05-08T00:00:32;100258.19;;;12.56;88.62
69842;BME280;57138;51.326;-0.068;2023-05-08T00:02:58;100265.19;;;12.57;88.56
69842;BME280;57138;51.326;-0.068;2023-05-08T00:05:23;100269.94;;;12.55;88.86
69842;BME280;57138;51.326;-0.068;2023-05-08T00:07:48;100259.41;;;12.53;88.98
69842;BME280;57138;51.326;-0.068;2023-05-08T00:10:16;100265.19;;;12.50;88.80
69842;BME280;57138;51.326;-0.068;2023-05-08T00:12:41;100263.91;;;12.46;88.59
69842;BME280;57138;51.326;-0.068;2023-05-08T00:15:08;100250.69;;;12.45;88.87
69842;BME280;57138;51.326;-0.068;2023-05-08T00:17:33;100248.22;;;12.43;89.11
69842;BME280;57138;51.326;-0.068;2023-05-08T00:19:59;100250.47;;;12.39;88.91
69842;BME280;57138;51.326;-0.068;2023-05-08T00:22:24;100245.72;;;12.35;88.84
69842;BME280;57138;51.326;-0.068;2023-05-08T00:24:50;100254.78;;;12.34;88.98
69842;BME280;57138;51.326;-0.068;2023-05-08T00:27:15;100251.09;;;12.35;89.10
69842;BME280;57138;51.326;-0.068;2023-05-08T00:29:42;100246.94;;;12.32;89.32
69842;BME280;57138;51.326;-0.068;2023-05-08T00:32:08;100246.94;;;12.32;89.03
69842;BME280;57138;51.326;-0.068;2023-05-08T00:34:34;100238.47;;;12.29;88.86
69842;BME280;57138;51.326;-0.068;2023-05-08T00:37:00;100224.88;;;12.30;88.86
69842;BME280;57138;51.326;-0.068;2023-05-08T00:39:27;100225.47;;;12.32;88.71
69842;BME280;57138;51.326;-0.068;2023-05-08T00:41:53;100221.38;;;12.30;88.53
69842;BME280;57138;51.326;-0.068;2023-05-08T00:44:18;100226.72;;;12.30;88.21
69842;BME280;57138;51.326;-0.068;2023-05-08T00:46:44;100218.41;;;12.18;88.01
69842;BME280;57138;51.326;-0.068;2023-05-08T00:49:10;100219.88;;;12.20;87.89
69842;BME280;57138;51.326;-0.068;2023-05-08T00:51:43;100220.91;;;12.19;88.27
69842;BME280;57138;51.326;-0.068;2023-05-08T00:54:11;100222.13;;;12.17;87.80
69842;BME280;57138;51.326;-0.068;2023-05-08T00:56:37;100221.69;;;12.13;87.97
69842;BME280;57138;51.326;-0.068;2023-05-08T00:59:13;100218.41;;;12.11;88.30
69842;BME280;57138;51.326;-0.068;2023-05-08T01:01:42;100219.59;;;12.09;87.85
69842;BME280;57138;51.326;-0.068;2023-05-08T01:04:07;100222.69;;;12.05;88.08
69842;BME280;57138;51.326;-0.068;2023-05-08T01:06:33;100213.81;;;12.05;87.95
69842;BME280;57138;51.326;-0.068;2023-05-08T01:08:59;100220.41;;;12.02;88.05
69842;BME280;57138;51.326;-0.068;2023-05-08T01:11:33;100214.63;;;11.99;87.75
69842;BME280;57138;51.326;-0.068;2023-05-08T01:16:55;100219.94;;;11.92;88.24
69842;BME280;57138;51.326;-0.068;2023-05-08T01:24:51;100213.25;;;11.81;87.74
69842;BME280;57138;51.326;-0.068;2023-05-08T01:27:39;100204.56;;;11.79;87.61
69842;BME280;57138;51.326;-0.068;2023-05-08T01:35:49;100205.31;;;11.66;87.83
69842;BME280;57138;51.326;-0.068;2023-05-08T01:38:39;100210.88;;;11.65;88.36
69842;BME280;57138;51.326;-0.068;2023-05-08T01:41:25;100199.72;;;11.61;88.10
69842;BME280;57138;51.326;-0.068;2023-05-08T01:46:23;100208.34;;;11.57;88.04
69842;BME280;57138;51.326;-0.068;2023-05-08T01:49:14;100213.91;;;11.55;87.80
69842;BME280;57138;51.326;-0.068;2023-05-08T01:51:45;100210.16;;;11.49;88.67
69842;BME280;57138;51.326;-0.068;2023-05-08T01:54:15;100210.91;;;11.43;89.51
69842;BME280;57138;51.326;-0.068;2023-05-08T01:56:46;100218.94;;;11.43;89.96
69842;BME280;57138;51.326;-0.068;2023-05-08T01:59:16;100221.19;;;11.40;90.60
69842;BME280;57138;51.326;-0.068;2023-05-08T02:01:44;100225.72;;;11.39;91.33
69842;BME280;57138;51.326;-0.068;2023-05-08T02:04:13;100219.09;;;11.35;91.74
69842;BME280;57138;51.326;-0.068;2023-05-08T02:06:39;100223.63;;;11.35;91.75
69842;BME280;57138;51.326;-0.068;2023-05-08T02:09:07;100231.47;;;11.36;92.03
69842;BME280;57138;51.326;-0.068;2023-05-08T02:11:35;100219.50;;;11.32;92.20
69842;BME280;57138;51.326;-0.068;2023-05-08T02:14:02;100223.19;;;11.31;92.33
69842;BME280;57138;51.326;-0.068;2023-05-08T02:16:29;100233.25;;;11.29;93.29
69842;BME280;57138;51.326;-0.068;2023-05-08T02:18:58;100229.09;;;11.26;93.20
69842;BME280;57138;51.326;-0.068;2023-05-08T02:21:25;100222.69;;;11.21;93.32
69842;BME280;57138;51.326;-0.068;2023-05-08T02:23:53;100237.72;;;11.22;93.40
69842;BME280;57138;51.326;-0.068;2023-05-08T02:26:21;100227.59;;;11.17;93.98
69842;BME280;57138;51.326;-0.068;2023-05-08T02:28:48;100235.19;;;11.13;93.95
69842;BME280;57138;51.326;-0.068;2023-05-08T02:31:15;100242.00;;;11.16;94.11
69842;BME280;57138;51.326;-0.068;2023-05-08T02:33:42;100230.84;;;11.12;94.12
69842;BME280;57138;51.326;-0.068;2023-05-08T02:36:10;100225.88;;;11.09;93.81
69842;BME280;57138;51.326;-0.068;2023-05-08T02:38:38;100226.25;;;11.06;94.18
69842;BME280;57138;51.326;-0.068;2023-05-08T02:41:06;100218.44;;;11.05;94.17
69842;BME280;57138;51.326;-0.068;2023-05-08T02:43:33;100223.31;;;11.01;94.44
69842;BME280;57138;51.326;-0.068;2023-05-08T02:51:38;100217.16;;;11.01;94.94
69842;BME280;57138;51.326;-0.068;2023-05-08T02:54:23;100215.69;;;10.98;95.02
69842;BME280;57138;51.326;-0.068;2023-05-08T02:56:58;100207.66;;;10.98;95.12
69842;BME280;57138;51.326;-0.068;2023-05-08T02:59:32;100209.69;;;10.96;95.18
69842;BME280;57138;51.326;-0.068;2023-05-08T03:02:13;100199.00;;;10.96;95.18
69842;BME280;57138;51.326;-0.068;2023-05-08T03:04:51;100208.03;;;10.95;95.14
69842;BME280;57138;51.326;-0.068;2023-05-08T03:07:20;100217.09;;;10.94;94.51
69842;BME280;57138;51.326;-0.068;2023-05-08T03:09:52;100217.09;;;10.94;94.28
69842;BME280;57138;51.326;-0.068;2023-05-08T03:12:22;100208.81;;;10.89;94.10
69842;BME280;57138;51.326;-0.068;2023-05-08T03:15:16;100215.81;;;10.90;94.45
69842;BME280;57138;51.326;-0.068;2023-05-08T03:17:45;100207.16;;;10.88;94.18
69842;BME280;57138;51.326;-0.068;2023-05-08T03:20:15;100216.56;;;10.84;93.82
69842;BME280;57138;51.326;-0.068;2023-05-08T03:22:43;100204.59;;;10.79;93.75
69842;BME280;57138;51.326;-0.068;2023-05-08T03:25:10;100194.94;;;10.78;93.56
69842;BME280;57138;51.326;-0.068;2023-05-08T03:27:39;100199.63;;;10.76;93.64
69842;BME280;57138;51.326;-0.068;2023-05-08T03:30:06;100200.47;;;10.77;93.06
69842;BME280;57138;51.326;-0.068;2023-05-08T03:32:32;100201.66;;;10.74;92.67
69842;BME280;57138;51.326;-0.068;2023-05-08T03:34:58;100206.56;;;10.71;93.46
69842;BME280;57138;51.326;-0.068;2023-05-08T03:37:28;100204.28;;;10.68;93.11
69842;BME280;57138;51.326;-0.068;2023-05-08T03:39:54;100211.44;;;10.67;93.47
69842;BME280;57138;51.326;-0.068;2023-05-08T03:42:22;100204.66;;;10.65;93.60
69842;BME280;57138;51.326;-0.068;2023-05-08T03:44:52;100207.34;;;10.65;94.21
69842;BME280;57138;51.326;-0.068;2023-05-08T03:47:19;100196.16;;;10.61;94.04
69842;BME280;57138;51.326;-0.068;2023-05-08T03:49:46;100194.53;;;10.60;94.04
69842;BME280;57138;51.326;-0.068;2023-05-08T03:52:12;100191.19;;;10.58;94.13
69842;BME280;57138;51.326;-0.068;2023-05-08T03:54:38;100182.09;;;10.52;93.85
69842;BME280;57138;51.326;-0.068;2023-05-08T03:57:03;100184.59;;;10.54;94.27
69842;BME280;57138;51.326;-0.068;2023-05-08T03:59:37;100187.44;;;10.52;94.14
69842;BME280;57138;51.326;-0.068;2023-05-08T04:02:12;100187.25;;;10.54;94.17
69842;BME280;57138;51.326;-0.068;2023-05-08T04:04:44;100186.63;;;10.52;93.94
69842;BME280;57138;51.326;-0.068;2023-05-08T04:07:23;100186.63;;;10.52;94.22
69842;BME280;57138;51.326;-0.068;2023-05-08T04:10:20;100188.47;;;10.51;94.03
69842;BME280;57138;51.326;-0.068;2023-05-08T04:13:04;100190.31;;;10.51;94.67
69842;BME280;57138;51.326;-0.068;2023-05-08T04:15:34;100193.00;;;10.51;94.76
69842;BME280;57138;51.326;-0.068;2023-05-08T04:18:07;100189.13;;;10.53;94.42
69842;BME280;57138;51.326;-0.068;2023-05-08T04:20:33;100189.94;;;10.54;94.69
69842;BME280;57138;51.326;-0.068;2023-05-08T04:23:02;100183.56;;;10.55;94.41
69842;BME280;57138;51.326;-0.068;2023-05-08T04:25:29;100181.28;;;10.52;94.68
69842;BME280;57138;51.326;-0.068;2023-05-08T04:27:58;100184.59;;;10.54;95.00
69842;BME280;57138;51.326;-0.068;2023-05-08T04:30:24;100179.69;;;10.57;95.03
69842;BME280;57138;51.326;-0.068;2023-05-08T04:32:50;100178.88;;;10.57;94.73
69842;BME280;57138;51.326;-0.068;2023-05-08T04:35:16;100185.66;;;10.59;95.13
69842;BME280;57138;51.326;-0.068;2023-05-08T04:37:42;100185.84;;;10.58;94.98
69842;BME280;57138;51.326;-0.068;2023-05-08T04:40:08;100192.88;;;10.59;95.21
69842;BME280;57138;51.326;-0.068;2023-05-08T04:42:34;100187.53;;;10.59;95.64
69842;BME280;57138;51.326;-0.068;2023-05-08T04:45:01;100186.50;;;10.60;95.26
69842;BME280;57138;51.326;-0.068;2023-05-08T04:47:26;100188.16;;;10.61;95.23
69842;BME280;57138;51.326;-0.068;2023-05-08T04:49:51;100181.34;;;10.58;95.48
69842;BME280;57138;51.326;-0.068;2023-05-08T04:52:17;100187.91;;;10.56;95.50
69842;BME280;57138;51.326;-0.068;2023-05-08T04:54:42;100184.59;;;10.54;95.80
69842;BME280;57138;51.326;-0.068;2023-05-08T04:57:09;100190.94;;;10.53;95.59
69842;BME280;57138;51.326;-0.068;2023-05-08T04:59:35;100192.34;;;10.49;96.40
69842;BME280;57138;51.326;-0.068;2023-05-08T05:02:00;100192.72;;;10.46;96.01
69842;BME280;57138;51.326;-0.068;2023-05-08T05:04:27;100193.94;;;10.43;96.37
69842;BME280;57138;51.326;-0.068;2023-05-08T05:06:53;100196.59;;;10.43;96.48
69842;BME280;57138;51.326;-0.068;2023-05-08T05:09:18;100188.97;;;10.40;96.83
69842;BME280;57138;51.326;-0.068;2023-05-08T05:11:44;100196.78;;;10.41;97.03
69842;BME280;57138;51.326;-0.068;2023-05-08T05:14:09;100196.78;;;10.41;97.47
69842;BME280;57138;51.326;-0.068;2023-05-08T05:16:35;100198.47;;;10.42;97.65
69842;BME280;57138;51.326;-0.068;2023-05-08T05:19:01;100206.09;;;10.46;97.62
69842;BME280;57138;51.326;-0.068;2023-05-08T05:21:26;100207.56;;;10.48;98.50
69842;BME280;57138;51.326;-0.068;2023-05-08T05:23:52;100210.59;;;10.45;98.53
69842;BME280;57138;51.326;-0.068;2023-05-08T05:26:18;100217.06;;;10.51;98.41
69842;BME280;57138;51.326;-0.068;2023-05-08T05:28:43;100221.19;;;10.53;98.55
69842;BME280;57138;51.326;-0.068;2023-05-08T05:31:09;100216.47;;;10.55;98.47
69842;BME280;57138;51.326;-0.068;2023-05-08T05:33:34;100208.84;;;10.52;98.69
69842;BME280;57138;51.326;-0.068;2023-05-08T05:36:00;100216.28;;;10.57;98.46
69842;BME280;57138;51.326;-0.068;2023-05-08T05:38:25;100220.59;;;10.58;98.45
69842;BME280;57138;51.326;-0.068;2023-05-08T05:40:51;100224.13;;;10.58;98.34
69842;BME280;57138;51.326;-0.068;2023-05-08T05:43:16;100227.88;;;10.64;98.31
69842;BME280;57138;51.326;-0.068;2023-05-08T05:45:42;100224.81;;;10.67;98.28
69842;BME280;57138;51.326;-0.068;2023-05-08T05:48:07;100217.84;;;10.66;97.82
69842;BME280;57138;51.326;-0.068;2023-05-08T05:50:33;100227.78;;;10.72;97.82
69842;BME280;57138;51.326;-0.068;2023-05-08T05:52:58;100221.41;;;10.73;97.82
69842;BME280;57138;51.326;-0.068;2023-05-08T05:55:23;100222.25;;;10.74;98.06
69842;BME280;57138;51.326;-0.068;2023-05-08T05:57:49;100226.19;;;10.78;97.44
69842;BME280;57138;51.326;-0.068;2023-05-08T06:00:15;100231.34;;;10.79;97.81
69842;BME280;57138;51.326;-0.068;2023-05-08T06:02:41;100228.84;;;10.78;97.28
69842;BME280;57138;51.326;-0.068;2023-05-08T06:05:08;100232.63;;;10.84;97.53
69842;BME280;57138;51.326;-0.068;2023-05-08T06:07:34;100233.25;;;10.86;97.00
69842;BME280;57138;51.326;-0.068;2023-05-08T06:10:00;100231.88;;;10.90;97.08
69842;BME280;57138;51.326;-0.068;2023-05-08T06:12:25;100231.91;;;10.96;96.81
69842;BME280;57138;51.326;-0.068;2023-05-08T06:14:52;100233.59;;;10.97;96.78
69842;BME280;57138;51.326;-0.068;2023-05-08T06:17:18;100232.25;;;11.08;97.18
69842;BME280;57138;51.326;-0.068;2023-05-08T06:19:44;100249.47;;;11.21;96.54
69842;BME280;57138;51.326;-0.068;2023-05-08T06:22:17;100245.06;;;11.35;96.59
69842;BME280;57138;51.326;-0.068;2023-05-08T06:24:43;100252.16;;;11.49;95.58
69842;BME280;57138;51.326;-0.068;2023-05-08T06:27:09;100245.59;;;11.51;94.00
69842;BME280;57138;51.326;-0.068;2023-05-08T06:29:35;100242.72;;;11.53;94.03
69842;BME280;57138;51.326;-0.068;2023-05-08T06:32:00;100244.41;;;11.61;94.24
69842;BME280;57138;51.326;-0.068;2023-05-08T06:34:26;100253.13;;;11.69;93.05
69842;BME280;57138;51.326;-0.068;2023-05-08T06:36:51;100247.19;;;11.74;92.94
69842;BME280;57138;51.326;-0.068;2023-05-08T06:39:16;100243.69;;;11.74;92.72
69842;BME280;57138;51.326;-0.068;2023-05-08T06:41:46;100249.88;;;11.74;92.34
69842;BME280;57138;51.326;-0.068;2023-05-08T06:44:11;100255.22;;;11.74;91.71
69842;BME280;57138;51.326;-0.068;2023-05-08T06:46:36;100253.94;;;11.70;91.94
69842;BME280;57138;51.326;-0.068;2023-05-08T06:49:02;100253.56;;;11.73;92.37
69842;BME280;57138;51.326;-0.068;2023-05-08T06:51:27;100261.47;;;11.81;91.59
69842;BME280;57138;51.326;-0.068;2023-05-08T06:53:53;100256.50;;;11.78;91.19
69842;BME280;57138;51.326;-0.068;2023-05-08T06:56:18;100262.66;;;11.72;91.06
69842;BME280;57138;51.326;-0.068;2023-05-08T06:58:44;100250.25;;;11.71;90.94
69842;BME280;57138;51.326;-0.068;2023-05-08T07:01:09;100271.25;;;11.67;89.96
69842;BME280;57138;51.326;-0.068;2023-05-08T07:03:35;100266.50;;;11.63;90.78
69842;BME280;57138;51.326;-0.068;2023-05-08T07:06:01;100267.13;;;11.65;91.04
69842;BME280;57138;51.326;-0.068;2023-05-08T07:08:26;100278.22;;;11.62;90.19
69842;BME280;57138;51.326;-0.068;2023-05-08T07:10:54;100273.63;;;11.56;90.26
69842;BME280;57138;51.326;-0.068;2023-05-08T07:13:19;100280.66;;;11.57;91.25
69842;BME280;57138;51.326;-0.068;2023-05-08T07:15:46;100281.66;;;11.56;90.84
69842;BME280;57138;51.326;-0.068;2023-05-08T07:18:12;100278.59;;;11.59;91.20
69842;BME280;57138;51.326;-0.068;2023-05-08T07:20:37;100285.66;;;11.66;90.95
69842;BME280;57138;51.326;-0.068;2023-05-08T07:23:03;100269.78;;;11.65;90.67
69842;BME280;57138;51.326;-0.068;2023-05-08T07:25:28;100276.66;;;11.74;90.75
69842;BME280;57138;51.326;-0.068;2023-05-08T07:27:53;100277.94;;;11.78;90.46
69842;BME280;57138;51.326;-0.068;2023-05-08T07:30:19;100281.28;;;11.87;90.18
69842;BME280;57138;51.326;-0.068;2023-05-08T07:32:44;100269.75;;;11.86;89.52
69842;BME280;57138;51.326;-0.068;2023-05-08T07:35:10;100267.69;;;11.88;89.60
69842;BME280;57138;51.326;-0.068;2023-05-08T07:37:37;100267.28;;;11.92;90.09
69842;BME280;57138;51.326;-0.068;2023-05-08T07:40:03;100262.31;;;11.88;89.69
69842;BME280;57138;51.326;-0.068;2023-05-08T07:42:29;100262.81;;;11.92;90.18
69842;BME280;57138;51.326;-0.068;2023-05-08T07:44:54;100258.28;;;11.93;90.68
69842;BME280;57138;51.326;-0.068;2023-05-08T07:47:20;100260.78;;;12.01;90.20
69842;BME280;57138;51.326;-0.068;2023-05-08T07:49:45;100273.41;;;12.07;90.17
69842;BME280;57138;51.326;-0.068;2023-05-08T07:52:11;100266.81;;;12.03;89.26
69842;BME280;57138;51.326;-0.068;2023-05-08T07:54:36;100264.72;;;11.98;89.73
69842;BME280;57138;51.326;-0.068;2023-05-08T07:57:02;100259.09;;;11.93;89.60
69842;BME280;57138;51.326;-0.068;2023-05-08T07:59:27;100259.84;;;11.87;89.38
69842;BME280;57138;51.326;-0.068;2023-05-08T08:01:52;100259.41;;;11.83;90.16
69842;BME280;57138;51.326;-0.068;2023-05-08T08:04:18;100259.03;;;11.86;90.00
69842;BME280;57138;51.326;-0.068;2023-05-08T08:06:43;100259.41;;;11.83;90.03
69842;BME280;57138;51.326;-0.068;2023-05-08T08:09:08;100258.59;;;11.83;90.15
69842;BME280;57138;51.326;-0.068;2023-05-08T08:11:34;100254.69;;;11.85;90.66
69842;BME280;57138;51.326;-0.068;2023-05-08T08:13:59;100246.25;;;11.88;90.75
69842;BME280;57138;51.326;-0.068;2023-05-08T08:16:25;100252.53;;;11.96;91.31
69842;BME280;57138;51.326;-0.068;2023-05-08T08:18:50;100252.75;;;12.01;90.62
69842;BME280;57138;51.326;-0.068;2023-05-08T08:21:18;100245.38;;;12.03;90.62
69842;BME280;57138;51.326;-0.068;2023-05-08T08:23:43;100237.56;;;12.08;90.73
69842;BME280;57138;51.326;-0.068;2023-05-08T08:26:09;100244.41;;;12.17;90.31
69842;BME280;57138;51.326;-0.068;2023-05-08T08:28:34;100247.94;;;12.25;90.30
69842;BME280;57138;51.326;-0.068;2023-05-08T08:30:59;100242.63;;;12.31;89.88
69842;BME280;57138;51.326;-0.068;2023-05-08T08:33:28;100242.03;;;12.36;89.57
69842;BME280;57138;51.326;-0.068;2023-05-08T08:35:53;100240.19;;;12.43;89.48
69842;BME280;57138;51.326;-0.068;2023-05-08T08:38:19;100234.41;;;12.46;89.07
69842;BME280;57138;51.326;-0.068;2023-05-08T08:40:44;100239.63;;;12.54;88.17
69842;BME280;57138;51.326;-0.068;2023-05-08T08:43:10;100234.06;;;12.56;88.66
69842;BME280;57138;51.326;-0.068;2023-05-08T08:45:36;100231.81;;;12.66;88.58
69842;BME280;57138;51.326;-0.068;2023-05-08T08:48:02;100226.03;;;12.76;88.65
69842;BME280;57138;51.326;-0.068;2023-05-08T08:50:32;100227.34;;;12.93;88.97
69842;BME280;57138;51.326;-0.068;2023-05-08T08:53:12;100220.75;;;13.09;88.70
69842;BME280;57138;51.326;-0.068;2023-05-08T08:55:43;100217.44;;;13.21;86.51
69842;BME280;57138;51.326;-0.068;2023-05-08T08:58:20;100225.72;;;13.33;85.19
69842;BME280;57138;51.326;-0.068;2023-05-08T09:00:47;100200.34;;;13.48;86.72
69842;BME280;57138;51.326;-0.068;2023-05-08T09:03:13;100215.81;;;13.66;85.06
69842;BME280;57138;51.326;-0.068;2023-05-08T09:05:39;100217.44;;;13.74;82.95
69842;BME280;57138;51.326;-0.068;2023-05-08T09:08:05;100206.06;;;13.79;83.45
69842;BME280;57138;51.326;-0.068;2023-05-08T09:10:34;100214.53;;;13.89;82.82
69842;BME280;57138;51.326;-0.068;2023-05-08T09:13:02;100212.88;;;13.95;81.94
69842;BME280;57138;51.326;-0.068;2023-05-08T09:15:28;100215.75;;;14.00;82.57
69842;BME280;57138;51.326;-0.068;2023-05-08T09:17:55;100218.59;;;14.05;82.28
69842;BME280;57138;51.326;-0.068;2023-05-08T09:20:21;100221.50;;;14.10;81.83
69842;BME280;57138;51.326;-0.068;2023-05-08T09:22:47;100212.19;;;14.13;81.28
69842;BME280;57138;51.326;-0.068;2023-05-08T09:25:13;100208.50;;;14.07;79.81
69842;BME280;57138;51.326;-0.068;2023-05-08T09:27:38;100223.81;;;14.00;78.66
69842;BME280;57138;51.326;-0.068;2023-05-08T09:30:08;100220.50;;;13.98;79.79
69842;BME280;57138;51.326;-0.068;2023-05-08T09:32:39;100218.63;;;13.98;79.59
69842;BME280;57138;51.326;-0.068;2023-05-08T09:35:06;100222.78;;;14.01;78.29
69842;BME280;57138;51.326;-0.068;2023-05-08T09:37:32;100215.13;;;13.98;79.29
69842;BME280;57138;51.326;-0.068;2023-05-08T09:40:18;100228.16;;;14.01;78.47
69842;BME280;57138;51.326;-0.068;2023-05-08T09:42:45;100219.06;;;13.95;78.49
69842;BME280;57138;51.326;-0.068;2023-05-08T09:45:25;100220.50;;;13.91;77.76
69842;BME280;57138;51.326;-0.068;2023-05-08T09:47:51;100221.13;;;13.93;78.82
69842;BME280;57138;51.326;-0.068;2023-05-08T09:50:16;100217.41;;;13.94;78.38
69842;BME280;57138;51.326;-0.068;2023-05-08T09:52:45;100212.84;;;13.88;77.78
69842;BME280;57138;51.326;-0.068;2023-05-08T09:55:11;100218.22;;;13.88;78.53
69842;BME280;57138;51.326;-0.068;2023-05-08T09:57:38;100217.00;;;13.91;78.66
69842;BME280;57138;51.326;-0.068;2023-05-08T10:02:31;100221.31;;;13.98;78.04
69842;BME280;57138;51.326;-0.068;2023-05-08T10:04:57;100220.31;;;13.99;78.05
69842;BME280;57138;51.326;-0.068;2023-05-08T10:07:27;100219.47;;;14.06;78.22
69842;BME280;57138;51.326;-0.068;2023-05-08T10:10:01;100206.78;;;14.13;77.74
69842;BME280;57138;51.326;-0.068;2023-05-08T10:12:28;100208.66;;;14.12;77.73
69842;BME280;57138;51.326;-0.068;2023-05-08T10:14:55;100202.66;;;14.17;77.83
69842;BME280;57138;51.326;-0.068;2023-05-08T10:17:34;100207.78;;;14.25;78.04
69842;BME280;57138;51.326;-0.068;2023-05-08T10:20:06;100203.66;;;14.29;78.26
69842;BME280;57138;51.326;-0.068;2023-05-08T10:22:36;100195.16;;;14.32;77.93
69842;BME280;57138;51.326;-0.068;2023-05-08T10:25:02;100185.81;;;14.35;77.75
69842;BME280;57138;51.326;-0.068;2023-05-08T10:30:23;100177.34;;;14.31;76.26
69842;BME280;57138;51.326;-0.068;2023-05-08T10:32:51;100182.13;;;14.29;76.49
69842;BME280;57138;51.326;-0.068;2023-05-08T10:35:20;100173.41;;;14.34;76.52
69842;BME280;57138;51.326;-0.068;2023-05-08T10:37:46;100156.81;;;14.44;76.39
69842;BME280;57138;51.326;-0.068;2023-05-08T10:40:13;100152.59;;;14.54;76.42
69842;BME280;57138;51.326;-0.068;2023-05-08T10:42:44;100167.44;;;14.70;76.13
69842;BME280;57138;51.326;-0.068;2023-05-08T10:45:10;100159.88;;;14.86;76.94
69842;BME280;57138;51.326;-0.068;2023-05-08T10:56:04;100168.53;;;14.95;72.70
69842;BME280;57138;51.326;-0.068;2023-05-08T10:58:30;100170.66;;;14.86;72.94
69842;BME280;57138;51.326;-0.068;2023-05-08T11:03:24;100158.22;;;14.85;74.02
69842;BME280;57138;51.326;-0.068;2023-05-08T11:05:52;100162.94;;;14.96;74.03
69842;BME280;57138;51.326;-0.068;2023-05-08T11:08:19;100173.41;;;15.04;71.91
69842;BME280;57138;51.326;-0.068;2023-05-08T11:11:24;100170.56;;;14.99;72.53
69842;BME280;57138;51.326;-0.068;2023-05-08T11:13:58;100171.44;;;14.93;72.59
69842;BME280;57138;51.326;-0.068;2023-05-08T11:19:19;100171.25;;;14.88;73.90
69842;BME280;57138;51.326;-0.068;2023-05-08T11:22:10;100163.72;;;14.71;72.30
69842;BME280;57138;51.326;-0.068;2023-05-08T11:24:38;100166.25;;;14.66;73.40
69842;BME280;57138;51.326;-0.068;2023-05-08T11:27:03;100159.78;;;14.67;74.01
69842;BME280;57138;51.326;-0.068;2023-05-08T11:29:29;100161.63;;;14.73;74.43
69842;BME280;57138;51.326;-0.068;2023-05-08T11:31:54;100161.97;;;14.84;75.09
69842;BME280;57138;51.326;-0.068;2023-05-08T11:37:21;100165.88;;;14.88;74.20
69842;BME280;57138;51.326;-0.068;2023-05-08T11:39:48;100161.53;;;14.87;74.48
69842;BME280;57138;51.326;-0.068;2023-05-08T11:45:09;100163.59;;;14.85;73.10
69842;BME280;57138;51.326;-0.068;2023-05-08T11:47:40;100162.84;;;14.78;74.40
69842;BME280;57138;51.326;-0.068;2023-05-08T11:50:07;100168.28;;;14.71;73.95
69842;BME280;57138;51.326;-0.068;2023-05-08T11:52:38;100178.63;;;14.74;74.28
69842;BME280;57138;51.326;-0.068;2023-05-08T11:55:08;100183.16;;;14.73;72.91
69842;BME280;57138;51.326;-0.068;2023-05-08T11:57:34;100189.41;;;14.67;72.82
69842;BME280;57138;51.326;-0.068;2023-05-08T12:00:07;100188.19;;;14.63;73.50
69842;BME280;57138;51.326;-0.068;2023-05-08T12:02:42;100182.41;;;14.53;73.46
69842;BME280;57138;51.326;-0.068;2023-05-08T12:05:10;100171.06;;;14.44;74.15
69842;BME280;57138;51.326;-0.068;2023-05-08T12:07:45;100180.16;;;14.50;74.25
69842;BME280;57138;51.326;-0.068;2023-05-08T12:10:12;100172.03;;;14.56;74.67
69842;BME280;57138;51.326;-0.068;2023-05-08T12:12:38;100179.69;;;14.66;74.42
69842;BME280;57138;51.326;-0.068;2023-05-08T12:15:12;100174.44;;;14.78;74.26
69842;BME280;57138;51.326;-0.068;2023-05-08T12:17:37;100171.09;;;14.83;73.86
69842;BME280;57138;51.326;-0.068;2023-05-08T12:20:16;100172.78;;;14.77;73.62
69842;BME280;57138;51.326;-0.068;2023-05-08T12:22:49;100172.81;;;14.70;74.44
69842;BME280;57138;51.326;-0.068;2023-05-08T12:25:16;100174.06;;;14.74;76.04
69842;BME280;57138;51.326;-0.068;2023-05-08T12:27:42;100174.16;;;14.86;77.06
69842;BME280;57138;51.326;-0.068;2023-05-08T12:30:12;100160.88;;;14.91;77.34
69842;BME280;57138;51.326;-0.068;2023-05-08T12:32:39;100156.81;;;14.82;77.06
69842;BME280;57138;51.326;-0.068;2023-05-08T12:35:07;100157.09;;;14.67;76.86
69842;BME280;57138;51.326;-0.068;2023-05-08T12:37:34;100155.31;;;14.54;77.67
69842;BME280;57138;51.326;-0.068;2023-05-08T12:39:59;100180.44;;;14.35;77.42
69842;BME280;57138;51.326;-0.068;2023-05-08T12:43:01;100180.13;;;14.18;78.31
69842;BME280;57138;51.326;-0.068;2023-05-08T12:45:29;100168.16;;;14.00;77.43
69842;BME280;57138;51.326;-0.068;2023-05-08T12:48:04;100160.56;;;13.91;79.15
69842;BME280;57138;51.326;-0.068;2023-05-08T12:50:37;100155.56;;;13.94;78.89
69842;BME280;57138;51.326;-0.068;2023-05-08T12:53:13;100160.72;;;14.02;78.99
69842;BME280;57138;51.326;-0.068;2023-05-08T12:55:53;100148.28;;;14.08;78.47
69842;BME280;57138;51.326;-0.068;2023-05-08T12:58:22;100130.28;;;14.15;78.77
69842;BME280;57138;51.326;-0.068;2023-05-08T13:00:50;100110.13;;;14.31;78.09
69842;BME280;57138;51.326;-0.068;2023-05-08T13:03:22;100119.94;;;14.51;77.11
69842;BME280;57138;51.326;-0.068;2023-05-08T13:05:52;100127.72;;;14.66;75.86
69842;BME280;57138;51.326;-0.068;2023-05-08T13:08:18;100158.22;;;14.85;76.85
69842;BME280;57138;51.326;-0.068;2023-05-08T13:10:54;100146.59;;;14.91;75.08
69842;BME280;57138;51.326;-0.068;2023-05-08T13:13:24;100143.44;;;14.94;75.02
69842;BME280;57138;51.326;-0.068;2023-05-08T13:15:52;100130.00;;;14.94;73.78
69842;BME280;57138;51.326;-0.068;2023-05-08T13:18:18;100141.38;;;14.96;72.98
69842;BME280;57138;51.326;-0.068;2023-05-08T13:20:44;100128.81;;;14.90;71.96
69842;BME280;57138;51.326;-0.068;2023-05-08T13:23:10;100130.06;;;14.87;72.64
69842;BME280;57138;51.326;-0.068;2023-05-08T13:25:39;100127.38;;;14.87;72.16
69842;BME280;57138;51.326;-0.068;2023-05-08T13:28:07;100132.97;;;14.86;72.27
69842;BME280;57138;51.326;-0.068;2023-05-08T13:30:33;100139.38;;;14.85;72.38
69842;BME280;57138;51.326;-0.068;2023-05-08T13:33:00;100130.50;;;14.84;73.45